Fairchilds, Texas
Current Conditions -  °F | °C
As of 7:53 AM on Friday 24 Oct 2014 (Local Time) from KSGR Reporting Station
Clear Clear  
Wind Chill: 58°   Ceiling: Unl
Heat Index: 58°   Visibility: 10mi
Dew Point: 53°   Wind: 5mph
Humidity: 84%   Direction: 40°NE
Pressure: 30.14"   Gusts: NA
Location:  29.3854°N, 95.8138°W
Report Text: KSGR 241253Z 04004KT 10SM CLR 14/12 A3014 RMK AO2 SLP207 T01440117
Loading
Personal Weather Stations






























Interactive Weather Map
Tropical Storm Tracking
New forecast layout! Learn more

10-Day Weather Forecast

Advertisements
Track Severe Weather on mobile